Time;durP1;ratioP1;P1;durP2;ratioP2;P2;SDS_P1;SDS_P2;PMS_P1;PMS_P2;Temp;Humidity;BMP_temperature;BMP_pressure;BME280_temperature;BME280_humidity;BME280_pressure;Samples;Min_cycle;Max_cycle;Signal;HPM_P1;HPM_P2
2022/01/01 00:01:41;;;;;;;20.23;7.35;;;11.20;99.90;;;9.90;100.00;100915.28;6058669;23;20016;-80
2022/01/01 00:04:10;;;;;;;17.35;7.32;;;11.20;99.90;;;9.92;100.00;100945.00;6042992;23;20412;-80
2022/01/01 00:06:36;;;;;;;15.25;6.63;;;11.20;99.90;;;9.87;100.00;100937.31;6047776;23;20008;-80
2022/01/01 00:09:04;;;;;;;13.68;6.93;;;11.20;99.90;;;9.89;100.00;100945.97;6040931;23;20010;-79
2022/01/01 00:11:30;;;;;;;17.60;7.43;;;11.20;99.90;;;9.92;100.00;100943.22;6078528;23;20015;-80
2022/01/01 00:13:57;;;;;;;18.00;7.20;;;11.20;99.90;;;9.93;100.00;100946.72;6048884;23;20096;-80
2022/01/01 00:16:28;;;;;;;15.98;6.68;;;11.20;99.90;;;9.94;100.00;100956.31;6074368;23;20051;-80
2022/01/01 00:18:54;;;;;;;13.63;6.20;;;11.20;99.90;;;9.88;100.00;100983.72;6081621;23;20006;-80
2022/01/01 00:21:20;;;;;;;20.88;7.50;;;11.20;99.90;;;9.90;100.00;100981.88;6122547;23;20005;-81
2022/01/01 00:23:46;;;;;;;16.20;7.32;;;11.20;99.90;;;9.91;100.00;100982.72;6083514;23;20016;-80
2022/01/01 00:26:12;;;;;;;15.75;6.70;;;11.20;99.90;;;9.91;100.00;100994.09;6030896;23;20009;-80
2022/01/01 00:28:44;;;;;;;14.32;6.15;;;11.20;99.90;;;9.94;100.00;101008.94;6048328;23;20002;-80
2022/01/01 00:31:10;;;;;;;17.10;7.32;;;11.20;99.90;;;9.96;100.00;100981.66;6045550;23;20052;-81
2022/01/01 00:33:36;;;;;;;17.55;6.70;;;11.20;99.90;;;9.95;100.00;100994.84;6062875;23;20425;-80
2022/01/01 00:36:03;;;;;;;14.27;6.82;;;11.20;99.90;;;9.92;100.00;100995.84;6087971;23;20009;-80
2022/01/01 00:38:29;;;;;;;16.27;6.95;;;11.20;99.90;;;9.92;100.00;100990.56;6094170;23;20381;-82
2022/01/01 00:41:00;;;;;;;15.93;6.57;;;11.20;99.90;;;9.90;100.00;101004.72;6121820;23;20000;-80
2022/01/01 00:43:27;;;;;;;12.75;5.45;;;11.20;99.90;;;9.87;100.00;101026.72;6020845;23;20045;-81
2022/01/01 00:45:52;;;;;;;14.93;6.03;;;11.10;99.90;;;9.83;100.00;100999.69;6089474;23;20004;-80
2022/01/01 00:48:19;;;;;;;14.38;6.40;;;11.20;99.90;;;9.87;100.00;101018.84;6059030;23;20023;-80
2022/01/01 00:50:45;;;;;;;17.15;6.93;;;11.20;99.90;;;9.88;100.00;101043.38;6109336;23;20011;-79
2022/01/01 00:53:16;;;;;;;17.10;5.93;;;11.20;99.90;;;9.86;100.00;101040.78;6054782;23;20004;-80
2022/01/01 00:55:42;;;;;;;19.65;6.78;;;11.20;99.90;;;9.89;100.00;101052.94;6069658;23;20004;-81
2022/01/01 00:58:08;;;;;;;18.27;6.70;;;11.20;99.90;;;9.88;100.00;101054.72;6039920;23;24788;-80
2022/01/01 01:00:34;;;;;;;16.40;6.55;;;11.20;99.90;;;9.90;100.00;101057.31;6099187;23;20001;-80
2022/01/01 01:03:00;;;;;;;14.30;6.18;;;11.20;99.90;;;9.89;100.00;101068.72;6092206;23;20013;-79
2022/01/01 01:05:33;;;;;;;19.52;7.07;;;11.20;99.90;;;9.94;100.00;101065.03;6081329;23;20012;-80
2022/01/01 01:07:59;;;;;;;19.08;7.07;;;11.20;99.90;;;9.92;100.00;101069.47;6097331;23;20008;-79
2022/01/01 01:10:25;;;;;;;15.75;6.65;;;11.20;99.90;;;9.90;100.00;101062.56;6100268;23;19993;-81
2022/01/01 01:12:53;;;;;;;17.25;7.70;;;11.20;99.90;;;9.91;100.00;101086.16;6069363;23;20120;-80
2022/01/01 01:15:30;;;;;;;16.90;6.43;;;11.20;99.90;;;9.88;100.00;101098.59;6084517;23;20682;-79
2022/01/01 01:18:07;;;;;;;19.25;6.82;;;11.20;99.90;;;9.89;100.00;101066.94;6110209;23;20075;-80
2022/01/01 01:20:33;;;;;;;20.48;8.85;;;11.20;99.90;;;9.88;100.00;101088.94;6084635;23;20005;-81
2022/01/01 01:23:00;;;;;;;26.90;10.07;;;11.20;99.90;;;9.90;100.00;101102.03;6038134;23;20008;-81
2022/01/01 01:25:29;;;;;;;19.85;8.35;;;11.20;99.90;;;9.87;100.00;101097.75;6063835;23;20371;-80
2022/01/01 01:27:55;;;;;;;27.27;9.55;;;11.20;99.90;;;9.90;100.00;101112.56;6029626;23;19997;-81
2022/01/01 01:30:23;;;;;;;26.33;9.73;;;11.20;99.90;;;9.90;100.00;101121.28;6037575;23;20010;-80
2022/01/01 01:32:49;;;;;;;30.73;10.18;;;11.20;99.90;;;9.90;100.00;101102.03;6065095;23;20053;-81
2022/01/01 01:35:15;;;;;;;31.98;10.10;;;11.20;99.90;;;9.88;100.00;101067.88;6093252;23;20001;-80
2022/01/01 01:37:41;;;;;;;26.75;9.73;;;11.20;99.90;;;9.90;100.00;101152.84;6049261;23;20008;-81
2022/01/01 01:40:11;;;;;;;33.05;10.57;;;11.30;99.90;;;9.91;100.00;101146.66;6049115;23;20018;-81
2022/01/01 01:42:37;;;;;;;27.90;10.05;;;11.20;99.90;;;9.93;100.00;101149.25;6076775;23;20043;-82
2022/01/01 01:45:05;;;;;;;31.88;11.10;;;11.20;99.90;;;9.92;100.00;101145.78;6026698;23;20068;-80
2022/01/01 01:47:34;;;;;;;37.88;10.75;;;11.20;99.90;;;9.91;100.00;101145.81;6071118;23;20562;-81
2022/01/01 01:50:08;;;;;;;30.83;10.43;;;11.20;99.90;;;9.92;100.00;101161.56;6056562;23;20068;-81
2022/01/01 01:52:37;;;;;;;33.72;10.15;;;11.20;99.90;;;9.92;100.00;101160.69;6033165;23;20013;-80
2022/01/01 01:55:09;;;;;;;43.08;11.13;;;11.20;99.90;;;9.93;100.00;101180.81;6047757;23;20084;-82
2022/01/01 01:57:40;;;;;;;39.85;11.43;;;11.20;99.90;;;9.91;100.00;101193.16;6008624;23;20009;-82
2022/01/01 02:03:15;;;;;;;43.72;11.68;;;11.30;99.90;;;9.89;100.00;101205.50;6018168;23;20019;-81
2022/01/01 02:05:49;;;;;;;45.08;11.68;;;11.20;99.90;;;9.90;100.00;101207.25;6079472;23;20001;-83
2022/01/01 02:08:17;;;;;;;40.15;11.98;;;11.30;99.90;;;9.91;100.00;101180.88;6045899;23;20005;-82
2022/01/01 02:10:52;;;;;;;41.30;12.30;;;11.20;99.90;;;9.96;100.00;101207.88;6104064;23;20009;-81
2022/01/01 02:13:29;;;;;;;42.35;12.50;;;11.30;99.90;;;9.96;100.00;101231.56;6108066;23;20092;-81
2022/01/01 02:18:22;;;;;;;36.28;11.32;;;11.30;99.90;;;9.95;100.00;101247.38;6046538;23;20072;-81
2022/01/01 02:20:51;;;;;;;37.22;10.35;;;11.30;99.90;;;9.94;100.00;101250.94;6029002;23;20006;-82
2022/01/01 02:23:33;;;;;;;41.22;10.65;;;11.30;99.90;;;9.97;100.00;101271.88;6084409;23;20024;-81
2022/01/01 02:26:03;;;;;;;40.25;10.68;;;11.30;99.90;;;9.96;100.00;101273.66;6055059;23;20095;-82
2022/01/01 02:28:29;;;;;;;30.05;9.05;;;11.30;99.90;;;9.95;100.00;101284.22;6098029;23;20002;-80
2022/01/01 02:30:57;;;;;;;37.33;8.57;;;11.30;99.90;;;9.96;100.00;101273.66;6071387;23;20067;-81
2022/01/01 02:33:23;;;;;;;32.65;8.95;;;11.20;99.90;;;9.93;100.00;101291.31;6026658;23;20454;-82
2022/01/01 02:35:48;;;;;;;39.70;8.60;;;11.30;99.90;;;9.96;100.00;101288.59;6073389;23;20005;-81
2022/01/01 02:38:21;;;;;;;38.53;9.40;;;11.30;99.90;;;9.98;100.00;101302.53;6103788;23;20028;-80
2022/01/01 02:40:47;;;;;;;36.80;9.68;;;11.30;99.90;;;10.01;100.00;101294.53;6047825;23;20032;-82
2022/01/01 02:43:14;;;;;;;37.95;10.40;;;11.30;99.90;;;10.01;100.00;101300.63;6056516;23;20006;-82
2022/01/01 02:45:40;;;;;;;32.53;9.70;;;11.30;99.90;;;10.02;100.00;101317.28;6084443;23;20596;-81
2022/01/01 02:48:14;;;;;;;35.40;8.80;;;11.30;99.90;;;10.03;100.00;101298.81;6065774;23;20036;-80
2022/01/01 02:50:40;;;;;;;31.85;8.90;;;11.30;99.90;;;10.03;100.00;101319.88;6033694;23;20265;-81
2022/01/01 02:53:16;;;;;;;39.58;8.68;;;11.30;99.90;;;10.02;100.00;101318.16;6063020;22;20435;-81
2022/01/01 02:55:44;;;;;;;40.45;9.13;;;11.30;99.90;;;10.01;100.00;101337.47;6084865;23;20074;-81
2022/01/01 02:58:11;;;;;;;28.23;8.82;;;11.30;99.90;;;10.00;100.00;101338.41;6077101;23;20005;-83
2022/01/01 03:00:46;;;;;;;36.45;8.93;;;11.30;99.90;;;10.00;100.00;101363.81;6096029;23;20012;-80
2022/01/01 03:03:12;;;;;;;38.03;9.60;;;11.30;99.90;;;9.99;100.00;101344.56;6085122;23;20008;-80
2022/01/01 03:05:38;;;;;;;30.95;9.77;;;11.30;99.90;;;10.00;100.00;101298.06;6095930;23;20016;-83
2022/01/01 03:08:04;;;;;;;36.80;9.13;;;11.30;99.90;;;10.02;100.00;101309.38;6063037;23;20000;-80
2022/01/01 03:10:37;;;;;;;28.33;9.00;;;11.30;99.90;;;10.02;100.00;101307.63;6097488;23;20015;-82
2022/01/01 03:13:03;;;;;;;38.70;9.43;;;11.30;99.90;;;9.99;100.00;101301.63;6075585;23;20031;-82
2022/01/01 03:15:29;;;;;;;37.97;10.07;;;11.30;99.90;;;10.01;100.00;101303.28;6117869;23;20001;-82
2022/01/01 03:17:56;;;;;;;33.97;9.30;;;11.30;99.90;;;9.99;100.00;101307.72;6096708;23;20024;-81
2022/01/01 03:20:27;;;;;;;37.60;8.70;;;11.30;99.90;;;10.01;100.00;101328.72;6097021;23;20262;-82
2022/01/01 03:22:53;;;;;;;27.70;8.32;;;11.30;99.90;;;9.94;100.00;101320.19;6102402;23;20370;-81
2022/01/01 03:25:19;;;;;;;25.55;7.07;;;11.30;99.90;;;9.95;100.00;101327.16;6077819;23;20020;-82
2022/01/01 03:27:44;;;;;;;30.58;7.68;;;11.30;99.90;;;9.98;100.00;101352.53;6105480;23;20005;-80
2022/01/01 03:30:11;;;;;;;29.88;7.90;;;11.30;99.90;;;9.93;100.00;101360.53;6033123;23;20520;-81
2022/01/01 03:32:37;;;;;;;20.95;6.43;;;11.30;99.90;;;9.93;100.00;101375.47;6063697;23;20008;-81
2022/01/01 03:35:09;;;;;;;23.77;6.50;;;11.20;99.90;;;9.90;100.00;101371.19;6112993;23;20025;-82
2022/01/01 03:37:35;;;;;;;28.15;6.60;;;11.20;99.90;;;9.95;100.00;101386.81;6120367;23;20025;-81
2022/01/01 03:40:02;;;;;;;31.50;8.30;;;11.20;99.90;;;9.93;100.00;101392.13;6067960;23;20009;-81
2022/01/01 03:42:28;;;;;;;27.58;7.82;;;11.30;99.90;;;9.99;100.00;101401.59;6097546;23;20011;-80
2022/01/01 03:44:57;;;;;;;25.98;7.80;;;11.30;99.90;;;9.99;100.00;101412.13;6104307;23;20382;-80
2022/01/01 03:47:25;;;;;;;28.25;8.23;;;11.30;99.90;;;9.99;100.00;101414.75;6076946;23;20023;-81
2022/01/01 03:49:51;;;;;;;23.23;7.60;;;11.30;99.90;;;9.97;100.00;101414.78;6058820;23;20088;-81
2022/01/01 03:52:17;;;;;;;30.95;7.78;;;11.30;99.90;;;9.96;100.00;101435.91;6030015;23;20012;-81
2022/01/01 03:54:44;;;;;;;31.35;8.73;;;11.20;99.90;;;9.95;100.00;101435.03;6079943;23;20047;-81
2022/01/01 03:57:20;;;;;;;32.35;8.88;;;11.20;99.90;;;9.90;100.00;101434.31;6144800;23;21033;-80
2022/01/01 03:59:47;;;;;;;28.75;8.43;;;11.20;99.90;;;9.88;100.00;101459.81;6092483;23;20012;-82
2022/01/01 04:02:24;;;;;;;34.55;7.82;;;11.20;99.90;;;9.88;100.00;101465.06;6048413;23;20007;-82
2022/01/01 04:04:49;;;;;;;29.52;8.48;;;11.20;99.90;;;9.88;100.00;101451.06;6089927;23;20020;-81
2022/01/01 04:07:15;;;;;;;24.58;8.25;;;11.20;99.90;;;9.89;100.00;101473.81;6130078;23;20009;-82
2022/01/01 04:09:41;;;;;;;32.40;8.10;;;11.20;99.90;;;9.86;100.00;101475.63;6066668;23;19997;-82
2022/01/01 04:12:15;;;;;;;27.77;8.65;;;11.20;99.90;;;9.91;100.00;101490.41;6137801;23;20048;-81
2022/01/01 04:14:40;;;;;;;27.55;7.38;;;11.20;99.90;;;9.85;100.00;101478.34;6055058;23;20032;-82
2022/01/01 04:17:06;;;;;;;30.08;8.27;;;11.20;99.90;;;9.84;100.00;101487.13;6082026;23;20446;-82
2022/01/01 04:19:41;;;;;;;48.85;10.13;;;11.20;99.90;;;9.89;100.00;101510.66;6111197;23;20008;-82
2022/01/01 04:22:13;;;;;;;34.15;9.98;;;11.20;99.90;;;9.90;100.00;101523.75;6132648;23;20015;-83
2022/01/01 04:24:45;;;;;;;37.35;10.65;;;11.20;99.90;;;9.92;100.00;101502.69;6122683;23;20061;-80
2022/01/01 04:27:11;;;;;;;38.03;10.75;;;11.20;99.90;;;9.94;100.00;101535.06;6052064;23;20064;-83
2022/01/01 04:29:38;;;;;;;28.65;9.02;;;11.20;99.90;;;9.90;100.00;101536.06;6040529;23;20086;-83
2022/01/01 04:32:05;;;;;;;39.03;10.05;;;11.20;99.90;;;9.89;100.00;101540.44;6073926;23;20443;-81
2022/01/01 04:34:37;;;;;;;42.90;10.40;;;11.20;99.90;;;9.92;100.00;101563.19;6069755;23;20012;-81
2022/01/01 04:37:10;;;;;;;40.03;10.85;;;11.20;99.90;;;9.94;100.00;101546.44;6060433;23;20522;-81
2022/01/01 04:39:40;;;;;;;54.45;12.00;;;11.20;99.90;;;9.93;100.00;101570.16;6101182;23;20004;-82
2022/01/01 04:42:06;;;;;;;47.17;12.05;;;11.20;99.90;;;9.94;100.00;101533.28;6090138;23;20005;-83
2022/01/01 04:44:32;;;;;;;55.65;11.95;;;11.20;99.90;;;9.96;100.00;101520.09;6059585;23;20015;-82
2022/01/01 04:46:58;;;;;;;51.72;11.55;;;11.30;99.90;;;9.97;100.00;101504.22;6011759;23;20344;-82
2022/01/01 04:49:24;;;;;;;50.13;10.52;;;11.30;99.90;;;9.96;100.00;101497.25;6107430;23;20091;-82
2022/01/01 04:51:55;;;;;;;64.63;11.95;;;11.30;99.90;;;9.95;100.00;101503.41;6089711;23;20501;-82
2022/01/01 04:54:21;;;;;;;52.13;10.77;;;11.30;99.90;;;9.93;100.00;101507.00;6059457;23;20004;-82
2022/01/01 04:56:48;;;;;;;57.72;10.27;;;11.20;99.90;;;9.94;100.00;101504.34;6096282;23;20008;-82
2022/01/01 04:59:16;;;;;;;64.20;10.73;;;11.20;99.90;;;9.90;100.00;101499.22;6076773;23;20009;-82
2022/01/01 05:01:47;;;;;;;53.28;10.13;;;11.30;99.90;;;9.90;100.00;101501.88;6063182;23;20368;-82
2022/01/01 05:04:14;;;;;;;57.10;10.27;;;11.20;99.90;;;9.92;100.00;101495.63;6072393;23;20045;-83
2022/01/01 05:06:49;;;;;;;56.15;10.93;;;11.20;99.90;;;9.90;100.00;101496.59;6086803;23;20017;-82
2022/01/01 05:09:18;;;;;;;57.50;9.63;;;11.20;99.90;;;9.93;100.00;101504.38;6216452;23;20300;-82
2022/01/01 05:11:44;;;;;;;60.80;10.82;;;11.30;99.90;;;9.93;100.00;101502.59;6066155;23;20005;-82
2022/01/01 05:14:11;;;;;;;55.22;9.90;;;11.20;99.90;;;9.89;100.00;101506.25;6049435;23;20007;-83
2022/01/01 05:16:40;;;;;;;50.92;9.52;;;11.20;99.90;;;9.88;100.00;101504.53;6048377;23;20531;-82
2022/01/01 05:19:08;;;;;;;64.95;9.88;;;11.20;99.90;;;9.89;100.00;101513.28;6072130;23;21067;-82
2022/01/01 05:21:35;;;;;;;72.00;9.50;;;11.20;99.90;;;9.87;100.00;101500.19;6043985;23;20122;-82
2022/01/01 05:24:05;;;;;;;59.13;9.68;;;11.20;99.90;;;9.86;100.00;101515.09;6098107;23;20020;-82
2022/01/01 05:26:38;;;;;;;52.25;9.52;;;11.20;99.90;;;9.87;100.00;101502.81;6064774;23;20070;-82
2022/01/01 05:29:04;;;;;;;59.97;10.43;;;11.20;99.90;;;9.89;100.00;101511.50;6114965;23;20466;-82
2022/01/01 05:31:33;;;;;;;47.92;9.00;;;11.20;99.90;;;9.85;100.00;101505.50;6041960;23;20013;-81
2022/01/01 05:34:05;;;;;;;55.70;8.98;;;11.10;99.90;;;9.82;100.00;101512.59;6109958;23;20011;-82
2022/01/01 05:36:31;;;;;;;46.90;8.57;;;11.10;99.90;;;9.81;100.00;101505.63;6048585;23;20039;-82
2022/01/01 05:38:58;;;;;;;54.38;9.60;;;11.10;99.90;;;9.83;100.00;101516.97;6054314;23;20009;-83
2022/01/01 05:41:23;;;;;;;43.17;8.50;;;11.10;99.90;;;9.80;100.00;101514.41;6067131;23;20005;-82
2022/01/01 05:43:54;;;;;;;51.83;8.80;;;11.10;99.90;;;9.78;100.00;101513.59;6059448;23;20017;-81
2022/01/01 05:46:20;;;;;;;56.58;8.80;;;11.10;99.90;;;9.78;100.00;101524.13;6114563;23;20001;-81
2022/01/01 05:48:46;;;;;;;47.53;8.45;;;11.10;99.90;;;9.79;100.00;101531.13;6093553;23;20018;-83
2022/01/01 05:51:13;;;;;;;43.63;8.90;;;11.10;99.90;;;9.80;100.00;101527.56;6074503;23;20094;-83
2022/01/01 05:53:39;;;;;;;46.95;8.73;;;11.10;99.90;;;9.79;100.00;101529.34;6046429;23;20052;-81
2022/01/01 05:56:05;;;;;;;56.03;9.02;;;11.10;99.90;;;9.78;100.00;101525.00;6100925;23;20001;-81
2022/01/01 05:58:39;;;;;;;38.92;7.55;;;11.10;99.90;;;9.74;100.00;101535.66;6043064;23;20028;-83
2022/01/01 06:01:05;;;;;;;50.33;7.90;;;11.10;99.90;;;9.74;100.00;101520.75;6051349;23;20004;-82
2022/01/01 06:03:31;;;;;;;39.20;6.80;;;11.10;99.90;;;9.68;100.00;101517.44;6134963;23;20063;-81
2022/01/01 06:06:07;;;;;;;38.33;7.55;;;11.00;99.90;;;9.71;100.00;101527.88;6110163;23;20008;-81
2022/01/01 06:08:33;;;;;;;40.60;7.45;;;11.00;99.90;;;9.69;100.00;101527.03;6141520;23;20012;-82
2022/01/01 06:11:00;;;;;;;38.03;6.95;;;11.00;99.90;;;9.68;100.00;101531.44;6093344;23;20008;-81
2022/01/01 06:13:31;;;;;;;37.58;7.28;;;11.00;99.90;;;9.65;100.00;101527.16;6064121;23;20023;-81
2022/01/01 06:15:57;;;;;;;40.13;7.30;;;11.00;99.90;;;9.60;100.00;101515.88;6105891;23;20005;-82
2022/01/01 06:18:23;;;;;;;36.78;7.60;;;11.00;99.90;;;9.63;100.00;101518.44;6117006;23;20415;-81
2022/01/01 06:20:49;;;;;;;46.63;7.95;;;11.00;99.90;;;9.64;100.00;101529.81;6135567;23;20013;-81
2022/01/01 06:23:15;;;;;;;44.33;8.27;;;11.00;99.90;;;9.64;100.00;101527.19;6061603;23;20016;-82
2022/01/01 06:25:41;;;;;;;47.40;8.40;;;11.00;99.90;;;9.67;100.00;101519.19;6077366;23;20013;-81
2022/01/01 06:28:12;;;;;;;49.40;7.90;;;11.00;99.90;;;9.69;100.00;101516.53;6076142;23;20329;-82
2022/01/01 06:30:38;;;;;;;51.92;7.95;;;11.00;99.90;;;9.68;100.00;101517.44;6089228;23;19997;-81
2022/01/01 06:33:13;;;;;;;40.20;8.15;;;11.00;99.90;;;9.69;100.00;101529.69;6061553;23;20113;-81
2022/01/01 06:35:45;;;;;;;49.05;7.93;;;11.00;99.90;;;9.68;100.00;101544.59;6071960;23;20001;-80
2022/01/01 06:38:13;;;;;;;52.92;7.93;;;11.00;99.90;;;9.67;100.00;101536.75;6109823;23;20017;-81
2022/01/01 06:40:44;;;;;;;41.92;8.48;;;11.00;99.90;;;9.68;100.00;101534.09;6077843;23;20015;-82
2022/01/01 06:43:16;;;;;;;52.53;8.27;;;11.00;99.90;;;9.68;100.00;101539.34;6068223;23;20001;-83
2022/01/01 06:45:49;;;;;;;42.13;8.23;;;11.00;99.90;;;9.65;100.00;101529.78;6106639;23;20008;-83
2022/01/01 06:48:15;;;;;;;48.03;9.13;;;11.00;99.90;;;9.67;100.00;101531.50;6111087;23;20001;-81
2022/01/01 06:50:41;;;;;;;58.22;9.55;;;11.00;99.90;;;9.64;100.00;101535.94;6097710;23;20000;-83
2022/01/01 06:53:07;;;;;;;49.53;9.27;;;11.00;99.90;;;9.68;100.00;101554.25;6132184;23;20446;-81
2022/01/01 06:55:33;;;;;;;38.17;8.75;;;11.00;99.90;;;9.62;100.00;101537.75;6059211;23;20692;-83
2022/01/01 06:58:04;;;;;;;55.35;8.15;;;10.90;99.90;;;9.63;100.00;101536.84;6071179;23;20001;-81
2022/01/01 07:00:30;;;;;;;54.53;8.95;;;10.90;99.90;;;9.61;100.00;101540.41;6084522;23;20050;-81
2022/01/01 07:02:56;;;;;;;56.67;9.02;;;10.90;99.90;;;9.61;100.00;101538.66;6149332;23;20664;-82
2022/01/01 07:05:21;;;;;;;50.35;9.10;;;10.90;99.90;;;9.66;100.00;101554.31;6119910;23;22451;-81
2022/01/01 07:07:47;;;;;;;44.95;9.77;;;11.00;99.90;;;9.65;100.00;101553.44;6111174;23;20028;-81
2022/01/01 07:10:13;;;;;;;47.15;9.43;;;10.90;99.90;;;9.65;100.00;101558.72;6119715;23;20013;-82
2022/01/01 07:12:47;;;;;;;58.92;8.75;;;11.00;99.90;;;9.69;100.00;101566.50;6077817;23;20004;-81
2022/01/01 07:15:15;;;;;;;37.85;9.02;;;10.90;99.90;;;9.67;100.00;101563.91;6060770;23;20012;-82
2022/01/01 07:17:45;;;;;;;39.50;8.00;;;10.90;99.90;;;9.63;100.00;101567.53;6112541;23;20541;-81
2022/01/01 07:20:12;;;;;;;42.00;8.00;;;10.90;99.90;;;9.62;100.00;101571.94;6073894;23;20013;-83
2022/01/01 07:22:43;;;;;;;42.35;8.48;;;11.00;99.90;;;9.61;100.00;101562.31;6065135;23;20927;-79
2022/01/01 07:25:20;;;;;;;41.55;8.02;;;10.90;99.90;;;9.63;100.00;101568.41;6051545;23;20044;-84
2022/01/01 07:27:46;;;;;;;45.45;8.00;;;11.00;99.90;;;9.64;100.00;101571.88;6080011;23;20007;-83
2022/01/01 07:30:12;;;;;;;37.72;6.85;;;11.00;99.90;;;9.64;100.00;101574.53;6109092;23;20536;-81
2022/01/01 07:32:47;;;;;;;26.95;6.22;;;11.00;99.90;;;9.62;100.00;101576.34;6147202;23;20008;-81
2022/01/01 07:35:16;;;;;;;34.65;6.70;;;10.90;99.90;;;9.59;100.00;101577.28;6120278;23;20004;-81
2022/01/01 07:37:42;;;;;;;42.30;6.78;;;10.90;99.90;;;9.61;100.00;101585.09;6144794;23;20075;-81
2022/01/01 07:40:14;;;;;;;31.40;5.95;;;10.90;99.90;;;9.60;100.00;101586.88;6152434;23;20028;-82
2022/01/01 07:42:41;;;;;;;30.10;6.43;;;10.90;99.90;;;9.60;100.00;101581.63;6074318;23;20007;-82
2022/01/01 07:45:09;;;;;;;26.73;5.47;;;11.00;99.90;;;9.61;100.00;101585.09;6068277;23;20024;-81
2022/01/01 07:47:39;;;;;;;37.08;5.28;;;10.90;99.90;;;9.64;100.00;101596.41;6111946;23;20463;-82
2022/01/01 07:50:07;;;;;;;26.35;5.22;;;10.90;99.90;;;9.67;100.00;101599.84;6190918;23;20008;-81
2022/01/01 07:52:33;;;;;;;18.23;3.88;;;11.00;99.90;;;9.71;100.00;101612.03;6097315;23;20015;-82
2022/01/01 07:54:59;;;;;;;20.85;4.82;;;11.00;99.90;;;9.67;100.00;101600.72;6072897;23;19997;-82
2022/01/01 07:57:25;;;;;;;21.15;4.18;;;11.00;99.90;;;9.70;100.00;101607.66;6152485;23;20027;-81
2022/01/01 07:59:53;;;;;;;14.13;3.13;;;11.00;99.90;;;9.65;100.00;101608.66;6110532;23;20339;-81
2022/01/01 08:02:21;;;;;;;17.90;3.80;;;11.00;99.90;;;9.67;100.00;101607.75;6068315;23;20017;-84
2022/01/01 08:04:47;;;;;;;26.15;4.03;;;11.00;99.90;;;9.68;100.00;101614.75;6040732;23;20065;-80
2022/01/01 08:07:13;;;;;;;12.20;3.15;;;11.00;99.90;;;9.70;100.00;101615.53;6164003;23;20000;-81
2022/01/01 08:09:38;;;;;;;25.67;4.35;;;11.00;99.90;;;9.68;100.00;101617.38;6157187;23;20538;-79
2022/01/01 08:12:07;;;;;;;21.65;4.05;;;11.00;99.90;;;9.71;100.00;101625.16;6129084;23;20008;-80
2022/01/01 08:14:36;;;;;;;18.55;3.80;;;11.00;99.90;;;9.70;100.00;101620.78;6141408;23;20091;-80
2022/01/01 08:17:05;;;;;;;21.17;3.95;;;11.00;99.90;;;9.72;100.00;101614.63;6111655;23;20013;-80
2022/01/01 08:19:32;;;;;;;26.17;3.95;;;11.00;99.90;;;9.70;100.00;101621.69;6150124;23;20001;-80
2022/01/01 08:21:58;;;;;;;17.52;3.88;;;11.00;99.90;;;9.66;100.00;101612.16;6127069;23;20012;-80
2022/01/01 08:24:25;;;;;;;24.10;3.47;;;11.00;99.90;;;9.64;100.00;101620.06;6129497;23;20084;-80
2022/01/01 08:26:51;;;;;;;29.80;4.90;;;11.00;99.90;;;9.65;100.00;101623.56;6148726;23;20012;-80
2022/01/01 08:29:18;;;;;;;27.27;4.50;;;11.00;99.90;;;9.66;100.00;101638.44;6093047;23;20008;-80
2022/01/01 08:31:44;;;;;;;22.13;4.03;;;11.00;99.90;;;9.71;100.00;101646.22;6104369;23;20140;-79
2022/01/01 08:34:10;;;;;;;17.98;3.47;;;11.00;99.90;;;9.73;100.00;101637.34;6173558;23;20336;-80
2022/01/01 08:36:37;;;;;;;21.48;4.10;;;11.00;99.90;;;9.71;100.00;101633.06;6165924;23;20007;-81
2022/01/01 08:39:06;;;;;;;27.63;4.47;;;11.00;99.90;;;9.71;100.00;101631.28;6099896;23;19996;-81
2022/01/01 08:41:32;;;;;;;15.57;3.55;;;11.00;99.90;;;9.70;100.00;101641.84;6206932;23;20012;-80
2022/01/01 08:43:58;;;;;;;23.90;4.43;;;11.00;99.90;;;9.75;100.00;101658.38;6190181;23;20079;-80
2022/01/01 08:46:24;;;;;;;25.58;3.90;;;11.00;99.90;;;9.72;100.00;101650.53;6124952;23;20004;-80
2022/01/01 08:48:50;;;;;;;21.73;3.90;;;11.00;99.90;;;9.79;100.00;101652.13;6068438;23;20011;-80
2022/01/01 08:51:22;;;;;;;29.13;5.05;;;11.10;99.90;;;9.82;100.00;101650.25;6134607;23;20063;-81
2022/01/01 08:53:49;;;;;;;32.22;4.60;;;11.10;99.90;;;9.86;100.00;101656.28;6136056;23;20080;-81
2022/01/01 08:56:16;;;;;;;19.92;4.57;;;11.10;99.90;;;9.89;100.00;101657.97;6140163;23;20012;-80
2022/01/01 08:58:42;;;;;;;19.67;4.25;;;11.20;99.90;;;9.90;100.00;101663.19;6121996;23;20004;-80
2022/01/01 09:01:09;;;;;;;16.80;3.97;;;11.20;99.90;;;9.93;100.00;101665.72;6161871;23;20015;-80
2022/01/01 09:03:38;;;;;;;20.30;3.97;;;11.20;99.90;;;9.98;100.00;101663.84;6163348;23;20086;-80
2022/01/01 09:06:11;;;;;;;21.98;4.22;;;11.30;99.90;;;10.06;100.00;101676.75;6171259;23;20001;-79
2022/01/01 09:08:43;;;;;;;27.10;4.20;;;11.30;99.90;;;10.06;100.00;101675.00;6143327;23;19997;-79
2022/01/01 09:11:14;;;;;;;22.77;4.38;;;11.30;99.90;;;10.03;100.00;101668.97;6138884;23;19996;-79
2022/01/01 09:13:48;;;;;;;25.55;4.22;;;11.30;99.90;;;10.05;100.00;101675.91;6064847;23;20089;-80
2022/01/01 09:16:18;;;;;;;26.40;4.13;;;11.30;99.90;;;10.12;100.00;101683.63;6173982;23;20020;-80
2022/01/01 09:18:47;;;;;;;23.67;4.03;;;11.30;99.90;;;10.11;100.00;101673.97;6126047;23;20028;-79
2022/01/01 09:21:15;;;;;;;26.73;4.30;;;11.30;99.90;;;10.09;100.00;101670.56;6148886;23;20005;-80
2022/01/01 09:23:42;;;;;;;27.25;4.47;;;11.30;99.90;;;10.06;100.00;101677.63;6146483;23;20013;-81
2022/01/01 09:26:11;;;;;;;28.85;3.88;;;11.30;99.90;;;10.05;100.00;101675.91;6116156;23;20017;-80
2022/01/01 09:28:37;;;;;;;29.35;4.40;;;11.30;99.90;;;10.06;100.00;101676.75;6099343;23;20001;-81
2022/01/01 09:31:09;;;;;;;29.13;5.60;;;11.30;99.90;;;10.14;100.00;101700.22;6116807;23;20050;-80
2022/01/01 09:33:35;;;;;;;29.88;4.75;;;11.40;99.90;;;10.22;100.00;101706.13;6132340;23;20021;-80
2022/01/01 09:36:09;;;;;;;29.52;4.22;;;11.50;99.90;;;10.31;100.00;101713.78;6140334;23;20004;-80
2022/01/01 09:38:39;;;;;;;29.00;4.45;;;11.50;99.90;;;10.40;100.00;101708.22;6142031;23;20343;-80
2022/01/01 09:41:06;;;;;;;33.35;4.53;;;11.50;99.90;;;10.38;100.00;101706.56;6117151;23;20404;-80
2022/01/01 09:43:39;;;;;;;41.97;5.25;;;11.50;99.90;;;10.42;100.00;101714.31;6152808;23;20517;-80
2022/01/01 09:46:05;;;;;;;30.42;4.55;;;11.60;99.90;;;10.46;100.00;101712.47;6155511;23;20045;-80
2022/01/01 09:48:34;;;;;;;41.42;4.72;;;11.60;99.90;;;10.45;100.00;101716.88;6172973;23;20015;-80
2022/01/01 09:51:04;;;;;;;33.10;4.45;;;11.60;99.90;;;10.57;100.00;101749.00;6164221;23;20008;-80
2022/01/01 09:53:33;;;;;;;35.67;4.40;;;11.70;99.90;;;10.59;100.00;101736.66;6185920;23;22630;-80
2022/01/01 09:56:08;;;;;;;36.15;4.82;;;11.70;99.90;;;10.63;100.00;101738.28;6164395;23;20380;-80
2022/01/01 09:58:39;;;;;;;26.42;4.15;;;11.80;99.90;;;10.64;100.00;101721.56;6139487;23;20005;-79
2022/01/01 10:01:09;;;;;;;45.30;5.75;;;11.80;99.90;;;10.61;100.00;101705.88;6157473;23;20012;-80
2022/01/01 10:03:45;;;;;;;22.50;3.58;;;11.80;99.90;;;10.57;100.00;101712.13;6149482;23;20005;-80
2022/01/01 10:06:15;;;;;;;37.97;5.93;;;11.80;99.90;;;10.56;100.00;101740.25;6175376;23;20496;-79
2022/01/01 10:08:46;;;;;;;33.80;4.55;;;11.80;99.90;;;10.46;100.00;101738.78;6122169;23;20343;-80
2022/01/01 10:11:19;;;;;;;37.47;5.22;;;11.70;99.90;;;10.45;100.00;101745.84;6168958;23;20459;-80
2022/01/01 10:13:48;;;;;;;38.63;5.38;;;11.80;99.90;;;10.49;100.00;101753.63;6146518;23;20005;-79